sensor_id;sensor_type;location;lat;lon;timestamp;P1;durP1;ratioP1;P2;durP2;ratioP2
3433;SDS011;1730;41.932;25.548;2023-05-02T00:01:15;22.43;;;9.03;;
3433;SDS011;1730;41.932;25.548;2023-05-02T00:03:41;9.83;;;9.03;;
3433;SDS011;1730;41.932;25.548;2023-05-02T00:06:07;9.23;;;8.57;;
3433;SDS011;1730;41.932;25.548;2023-05-02T00:08:33;8.83;;;8.20;;
3433;SDS011;1730;41.932;25.548;2023-05-02T00:10:58;11.13;;;9.33;;
3433;SDS011;1730;41.932;25.548;2023-05-02T00:13:24;9.30;;;8.47;;
3433;SDS011;1730;41.932;25.548;2023-05-02T00:15:50;10.27;;;9.27;;
3433;SDS011;1730;41.932;25.548;2023-05-02T00:18:15;10.63;;;9.80;;
3433;SDS011;1730;41.932;25.548;2023-05-02T00:20:41;10.70;;;9.80;;
3433;SDS011;1730;41.932;25.548;2023-05-02T00:23:06;11.03;;;9.93;;
3433;SDS011;1730;41.932;25.548;2023-05-02T00:25:32;12.17;;;11.03;;
3433;SDS011;1730;41.932;25.548;2023-05-02T00:27:57;11.70;;;10.80;;
3433;SDS011;1730;41.932;25.548;2023-05-02T00:30:23;18.13;;;14.33;;
3433;SDS011;1730;41.932;25.548;2023-05-02T00:32:48;14.43;;;13.03;;
3433;SDS011;1730;41.932;25.548;2023-05-02T00:35:14;15.10;;;13.50;;
3433;SDS011;1730;41.932;25.548;2023-05-02T00:37:40;11.40;;;10.40;;
3433;SDS011;1730;41.932;25.548;2023-05-02T00:40:06;12.27;;;10.37;;
3433;SDS011;1730;41.932;25.548;2023-05-02T00:42:32;13.80;;;10.10;;
3433;SDS011;1730;41.932;25.548;2023-05-02T00:45:00;13.10;;;9.50;;
3433;SDS011;1730;41.932;25.548;2023-05-02T00:47:27;12.90;;;10.50;;
3433;SDS011;1730;41.932;25.548;2023-05-02T00:49:53;13.33;;;11.20;;
3433;SDS011;1730;41.932;25.548;2023-05-02T00:52:18;12.47;;;9.80;;
3433;SDS011;1730;41.932;25.548;2023-05-02T00:54:44;10.97;;;9.97;;
3433;SDS011;1730;41.932;25.548;2023-05-02T00:57:11;10.70;;;9.50;;
3433;SDS011;1730;41.932;25.548;2023-05-02T00:59:37;9.70;;;8.70;;
3433;SDS011;1730;41.932;25.548;2023-05-02T01:07:21;9.27;;;8.50;;
3433;SDS011;1730;41.932;25.548;2023-05-02T01:13:02;20.70;;;10.50;;
3433;SDS011;1730;41.932;25.548;2023-05-02T01:15:33;11.10;;;10.00;;
3433;SDS011;1730;41.932;25.548;2023-05-02T01:18:02;13.33;;;9.20;;
3433;SDS011;1730;41.932;25.548;2023-05-02T01:20:29;9.20;;;8.30;;
3433;SDS011;1730;41.932;25.548;2023-05-02T01:23:03;7.70;;;7.20;;
3433;SDS011;1730;41.932;25.548;2023-05-02T01:31:18;10.20;;;9.40;;
3433;SDS011;1730;41.932;25.548;2023-05-02T01:33:44;9.00;;;8.30;;
3433;SDS011;1730;41.932;25.548;2023-05-02T01:36:12;10.50;;;8.80;;
3433;SDS011;1730;41.932;25.548;2023-05-02T01:38:41;10.20;;;8.90;;
3433;SDS011;1730;41.932;25.548;2023-05-02T01:41:07;9.40;;;8.70;;
3433;SDS011;1730;41.932;25.548;2023-05-02T01:43:34;9.20;;;8.40;;
3433;SDS011;1730;41.932;25.548;2023-05-02T01:46:02;10.93;;;9.83;;
3433;SDS011;1730;41.932;25.548;2023-05-02T01:48:31;10.10;;;9.20;;
3433;SDS011;1730;41.932;25.548;2023-05-02T01:50:57;11.00;;;9.97;;
3433;SDS011;1730;41.932;25.548;2023-05-02T01:53:24;10.33;;;9.33;;
3433;SDS011;1730;41.932;25.548;2023-05-02T01:55:52;9.70;;;8.80;;
3433;SDS011;1730;41.932;25.548;2023-05-02T01:58:20;9.37;;;8.60;;
3433;SDS011;1730;41.932;25.548;2023-05-02T02:00:47;10.63;;;9.73;;
3433;SDS011;1730;41.932;25.548;2023-05-02T02:03:14;10.13;;;9.13;;
3433;SDS011;1730;41.932;25.548;2023-05-02T02:05:42;12.87;;;9.17;;
3433;SDS011;1730;41.932;25.548;2023-05-02T02:08:08;9.50;;;8.80;;
3433;SDS011;1730;41.932;25.548;2023-05-02T02:10:40;9.83;;;8.63;;
3433;SDS011;1730;41.932;25.548;2023-05-02T02:13:14;11.80;;;9.50;;
3433;SDS011;1730;41.932;25.548;2023-05-02T02:15:42;10.40;;;9.30;;
3433;SDS011;1730;41.932;25.548;2023-05-02T02:18:17;11.23;;;10.13;;
3433;SDS011;1730;41.932;25.548;2023-05-02T02:20:45;9.10;;;8.30;;
3433;SDS011;1730;41.932;25.548;2023-05-02T02:23:12;12.20;;;9.73;;
3433;SDS011;1730;41.932;25.548;2023-05-02T02:25:40;8.57;;;7.77;;
3433;SDS011;1730;41.932;25.548;2023-05-02T02:28:07;10.20;;;9.20;;
3433;SDS011;1730;41.932;25.548;2023-05-02T02:30:33;10.20;;;9.40;;
3433;SDS011;1730;41.932;25.548;2023-05-02T02:32:58;9.20;;;8.27;;
3433;SDS011;1730;41.932;25.548;2023-05-02T02:35:25;9.23;;;8.33;;
3433;SDS011;1730;41.932;25.548;2023-05-02T02:40:33;10.77;;;8.90;;
3433;SDS011;1730;41.932;25.548;2023-05-02T02:45:47;13.23;;;8.57;;
3433;SDS011;1730;41.932;25.548;2023-05-02T02:48:32;9.37;;;8.57;;
3433;SDS011;1730;41.932;25.548;2023-05-02T02:51:12;9.30;;;8.60;;
3433;SDS011;1730;41.932;25.548;2023-05-02T02:56:16;11.13;;;9.10;;
3433;SDS011;1730;41.932;25.548;2023-05-02T02:58:59;9.87;;;9.07;;
3433;SDS011;1730;41.932;25.548;2023-05-02T03:01:29;9.57;;;8.70;;
3433;SDS011;1730;41.932;25.548;2023-05-02T03:03:56;9.23;;;8.33;;
3433;SDS011;1730;41.932;25.548;2023-05-02T03:06:23;9.43;;;8.47;;
3433;SDS011;1730;41.932;25.548;2023-05-02T03:08:49;8.83;;;8.17;;
3433;SDS011;1730;41.932;25.548;2023-05-02T03:11:15;9.23;;;8.40;;
3433;SDS011;1730;41.932;25.548;2023-05-02T03:13:41;9.37;;;8.67;;
3433;SDS011;1730;41.932;25.548;2023-05-02T03:19:02;9.13;;;8.33;;
3433;SDS011;1730;41.932;25.548;2023-05-02T03:21:28;9.33;;;8.63;;
3433;SDS011;1730;41.932;25.548;2023-05-02T03:23:57;10.67;;;8.00;;
3433;SDS011;1730;41.932;25.548;2023-05-02T03:26:25;9.83;;;8.47;;
3433;SDS011;1730;41.932;25.548;2023-05-02T03:28:51;9.33;;;8.60;;
3433;SDS011;1730;41.932;25.548;2023-05-02T03:31:17;8.93;;;8.23;;
3433;SDS011;1730;41.932;25.548;2023-05-02T03:33:43;9.03;;;8.33;;
3433;SDS011;1730;41.932;25.548;2023-05-02T03:36:08;9.47;;;8.77;;
3433;SDS011;1730;41.932;25.548;2023-05-02T03:38:35;8.67;;;8.00;;
3433;SDS011;1730;41.932;25.548;2023-05-02T03:41:00;9.23;;;8.43;;
3433;SDS011;1730;41.932;25.548;2023-05-02T03:43:27;21.53;;;7.83;;
3433;SDS011;1730;41.932;25.548;2023-05-02T03:45:52;7.27;;;6.63;;
3433;SDS011;1730;41.932;25.548;2023-05-02T03:48:18;7.90;;;7.40;;
3433;SDS011;1730;41.932;25.548;2023-05-02T03:50:44;7.90;;;7.20;;
3433;SDS011;1730;41.932;25.548;2023-05-02T03:53:09;8.17;;;7.37;;
3433;SDS011;1730;41.932;25.548;2023-05-02T03:55:38;8.73;;;7.83;;
3433;SDS011;1730;41.932;25.548;2023-05-02T03:58:05;11.67;;;7.37;;
3433;SDS011;1730;41.932;25.548;2023-05-02T04:00:31;7.40;;;6.80;;
3433;SDS011;1730;41.932;25.548;2023-05-02T04:02:56;7.40;;;6.80;;
3433;SDS011;1730;41.932;25.548;2023-05-02T04:05:22;8.97;;;8.03;;
3433;SDS011;1730;41.932;25.548;2023-05-02T04:07:47;7.60;;;6.90;;
3433;SDS011;1730;41.932;25.548;2023-05-02T04:10:13;13.43;;;7.17;;
3433;SDS011;1730;41.932;25.548;2023-05-02T04:12:42;7.50;;;5.90;;
3433;SDS011;1730;41.932;25.548;2023-05-02T04:15:08;7.43;;;6.73;;
3433;SDS011;1730;41.932;25.548;2023-05-02T04:17:36;7.93;;;7.13;;
3433;SDS011;1730;41.932;25.548;2023-05-02T04:20:02;6.77;;;6.37;;
3433;SDS011;1730;41.932;25.548;2023-05-02T04:22:29;7.50;;;6.27;;
3433;SDS011;1730;41.932;25.548;2023-05-02T04:24:54;7.77;;;7.07;;
3433;SDS011;1730;41.932;25.548;2023-05-02T04:27:20;6.90;;;6.40;;
3433;SDS011;1730;41.932;25.548;2023-05-02T04:29:49;7.07;;;6.43;;
3433;SDS011;1730;41.932;25.548;2023-05-02T04:32:17;6.50;;;6.00;;
3433;SDS011;1730;41.932;25.548;2023-05-02T04:34:43;7.00;;;6.40;;
3433;SDS011;1730;41.932;25.548;2023-05-02T04:37:09;14.43;;;6.90;;
3433;SDS011;1730;41.932;25.548;2023-05-02T04:39:34;8.03;;;7.33;;
3433;SDS011;1730;41.932;25.548;2023-05-02T04:42:00;8.50;;;7.77;;
3433;SDS011;1730;41.932;25.548;2023-05-02T04:44:25;9.23;;;7.50;;
3433;SDS011;1730;41.932;25.548;2023-05-02T04:46:51;8.20;;;7.40;;
3433;SDS011;1730;41.932;25.548;2023-05-02T04:49:16;8.83;;;8.03;;
3433;SDS011;1730;41.932;25.548;2023-05-02T04:51:43;17.33;;;9.80;;
3433;SDS011;1730;41.932;25.548;2023-05-02T04:54:08;9.30;;;8.30;;
3433;SDS011;1730;41.932;25.548;2023-05-02T04:56:34;9.23;;;7.50;;
3433;SDS011;1730;41.932;25.548;2023-05-02T04:59:00;8.23;;;7.50;;
3433;SDS011;1730;41.932;25.548;2023-05-02T05:01:25;15.93;;;8.00;;
3433;SDS011;1730;41.932;25.548;2023-05-02T05:03:54;11.93;;;7.80;;
3433;SDS011;1730;41.932;25.548;2023-05-02T05:06:20;12.50;;;8.80;;
3433;SDS011;1730;41.932;25.548;2023-05-02T05:08:45;9.23;;;8.13;;
3433;SDS011;1730;41.932;25.548;2023-05-02T05:11:11;12.07;;;7.97;;
3433;SDS011;1730;41.932;25.548;2023-05-02T05:13:40;8.60;;;7.17;;
3433;SDS011;1730;41.932;25.548;2023-05-02T05:16:06;11.53;;;7.30;;
3433;SDS011;1730;41.932;25.548;2023-05-02T05:18:32;8.60;;;7.70;;
3433;SDS011;1730;41.932;25.548;2023-05-02T05:21:08;7.70;;;7.00;;
3433;SDS011;1730;41.932;25.548;2023-05-02T05:23:34;7.53;;;6.83;;
3433;SDS011;1730;41.932;25.548;2023-05-02T05:28:36;8.53;;;5.10;;
3433;SDS011;1730;41.932;25.548;2023-05-02T05:31:06;8.77;;;5.73;;
3433;SDS011;1730;41.932;25.548;2023-05-02T05:33:33;11.73;;;3.67;;
3433;SDS011;1730;41.932;25.548;2023-05-02T05:36:09;12.50;;;4.40;;
3433;SDS011;1730;41.932;25.548;2023-05-02T05:38:36;6.03;;;4.30;;
3433;SDS011;1730;41.932;25.548;2023-05-02T05:41:02;8.00;;;3.87;;
3433;SDS011;1730;41.932;25.548;2023-05-02T05:43:35;12.17;;;4.30;;
3433;SDS011;1730;41.932;25.548;2023-05-02T05:46:01;7.73;;;4.70;;
3433;SDS011;1730;41.932;25.548;2023-05-02T05:48:27;17.20;;;4.30;;
3433;SDS011;1730;41.932;25.548;2023-05-02T05:50:52;9.77;;;4.77;;
3433;SDS011;1730;41.932;25.548;2023-05-02T05:53:18;4.77;;;4.03;;
3433;SDS011;1730;41.932;25.548;2023-05-02T05:55:44;7.00;;;4.13;;
3433;SDS011;1730;41.932;25.548;2023-05-02T05:58:10;4.97;;;4.57;;
3433;SDS011;1730;41.932;25.548;2023-05-02T06:00:37;6.00;;;4.20;;
3433;SDS011;1730;41.932;25.548;2023-05-02T06:03:03;6.10;;;4.63;;
3433;SDS011;1730;41.932;25.548;2023-05-02T06:05:29;8.00;;;3.97;;
3433;SDS011;1730;41.932;25.548;2023-05-02T06:07:55;8.53;;;4.03;;
3433;SDS011;1730;41.932;25.548;2023-05-02T06:10:21;10.57;;;4.17;;
3433;SDS011;1730;41.932;25.548;2023-05-02T06:12:46;7.90;;;4.03;;
3433;SDS011;1730;41.932;25.548;2023-05-02T06:15:12;5.30;;;3.27;;
3433;SDS011;1730;41.932;25.548;2023-05-02T06:17:38;3.40;;;3.07;;
3433;SDS011;1730;41.932;25.548;2023-05-02T06:20:03;6.93;;;3.90;;
3433;SDS011;1730;41.932;25.548;2023-05-02T06:22:29;6.00;;;3.30;;
3433;SDS011;1730;41.932;25.548;2023-05-02T06:24:55;11.90;;;4.50;;
3433;SDS011;1730;41.932;25.548;2023-05-02T06:27:21;7.90;;;3.67;;
3433;SDS011;1730;41.932;25.548;2023-05-02T06:29:49;6.77;;;3.30;;
3433;SDS011;1730;41.932;25.548;2023-05-02T06:32:15;4.07;;;3.67;;
3433;SDS011;1730;41.932;25.548;2023-05-02T06:34:41;4.90;;;3.20;;
3433;SDS011;1730;41.932;25.548;2023-05-02T06:37:06;4.73;;;3.50;;
3433;SDS011;1730;41.932;25.548;2023-05-02T06:39:32;4.50;;;3.17;;
3433;SDS011;1730;41.932;25.548;2023-05-02T06:41:58;7.93;;;3.30;;
3433;SDS011;1730;41.932;25.548;2023-05-02T06:44:24;5.57;;;2.53;;
3433;SDS011;1730;41.932;25.548;2023-05-02T06:46:49;2.10;;;2.00;;
3433;SDS011;1730;41.932;25.548;2023-05-02T06:49:15;3.20;;;3.00;;
3433;SDS011;1730;41.932;25.548;2023-05-02T06:51:41;2.90;;;2.50;;
3433;SDS011;1730;41.932;25.548;2023-05-02T06:54:07;3.63;;;2.87;;
3433;SDS011;1730;41.932;25.548;2023-05-02T06:56:33;3.77;;;2.77;;
3433;SDS011;1730;41.932;25.548;2023-05-02T06:58:59;3.40;;;2.80;;
3433;SDS011;1730;41.932;25.548;2023-05-02T07:01:25;3.30;;;2.30;;
3433;SDS011;1730;41.932;25.548;2023-05-02T07:03:50;2.90;;;2.63;;
3433;SDS011;1730;41.932;25.548;2023-05-02T07:06:17;3.87;;;2.90;;
3433;SDS011;1730;41.932;25.548;2023-05-02T07:08:44;6.97;;;2.80;;
3433;SDS011;1730;41.932;25.548;2023-05-02T07:11:09;3.07;;;2.33;;
3433;SDS011;1730;41.932;25.548;2023-05-02T07:13:35;2.40;;;2.20;;
3433;SDS011;1730;41.932;25.548;2023-05-02T07:16:01;3.30;;;3.10;;
3433;SDS011;1730;41.932;25.548;2023-05-02T07:18:26;4.83;;;3.40;;
3433;SDS011;1730;41.932;25.548;2023-05-02T07:20:52;3.70;;;2.47;;
3433;SDS011;1730;41.932;25.548;2023-05-02T07:23:17;2.70;;;2.20;;
3433;SDS011;1730;41.932;25.548;2023-05-02T07:25:44;4.50;;;2.00;;
3433;SDS011;1730;41.932;25.548;2023-05-02T07:28:10;3.30;;;2.20;;
3433;SDS011;1730;41.932;25.548;2023-05-02T07:30:35;2.70;;;2.30;;
3433;SDS011;1730;41.932;25.548;2023-05-02T07:33:01;2.77;;;2.53;;
3433;SDS011;1730;41.932;25.548;2023-05-02T07:35:26;3.23;;;2.40;;
3433;SDS011;1730;41.932;25.548;2023-05-02T07:37:52;2.57;;;2.37;;
3433;SDS011;1730;41.932;25.548;2023-05-02T07:40:17;4.80;;;1.83;;
3433;SDS011;1730;41.932;25.548;2023-05-02T07:42:43;7.07;;;1.80;;
3433;SDS011;1730;41.932;25.548;2023-05-02T07:45:08;9.10;;;2.73;;
3433;SDS011;1730;41.932;25.548;2023-05-02T07:47:34;2.23;;;2.03;;
3433;SDS011;1730;41.932;25.548;2023-05-02T07:50:00;2.40;;;2.20;;
3433;SDS011;1730;41.932;25.548;2023-05-02T07:52:25;4.00;;;2.23;;
3433;SDS011;1730;41.932;25.548;2023-05-02T07:54:51;3.27;;;2.37;;
3433;SDS011;1730;41.932;25.548;2023-05-02T07:57:17;2.50;;;1.90;;
3433;SDS011;1730;41.932;25.548;2023-05-02T07:59:43;3.80;;;2.63;;
3433;SDS011;1730;41.932;25.548;2023-05-02T08:02:08;4.63;;;2.40;;
3433;SDS011;1730;41.932;25.548;2023-05-02T08:04:35;2.20;;;2.00;;
3433;SDS011;1730;41.932;25.548;2023-05-02T08:07:00;2.97;;;2.00;;
3433;SDS011;1730;41.932;25.548;2023-05-02T08:09:26;2.30;;;2.00;;
3433;SDS011;1730;41.932;25.548;2023-05-02T08:11:51;2.93;;;2.67;;
3433;SDS011;1730;41.932;25.548;2023-05-02T08:14:17;3.80;;;2.10;;
3433;SDS011;1730;41.932;25.548;2023-05-02T08:16:43;2.13;;;1.97;;
3433;SDS011;1730;41.932;25.548;2023-05-02T08:19:08;2.33;;;2.00;;
3433;SDS011;1730;41.932;25.548;2023-05-02T08:21:34;2.43;;;2.07;;
3433;SDS011;1730;41.932;25.548;2023-05-02T08:24:00;3.40;;;1.80;;
3433;SDS011;1730;41.932;25.548;2023-05-02T08:26:26;2.30;;;2.10;;
3433;SDS011;1730;41.932;25.548;2023-05-02T08:28:52;2.30;;;2.10;;
3433;SDS011;1730;41.932;25.548;2023-05-02T08:31:18;5.83;;;2.50;;
3433;SDS011;1730;41.932;25.548;2023-05-02T08:33:44;1.93;;;1.73;;
3433;SDS011;1730;41.932;25.548;2023-05-02T08:36:11;4.23;;;2.10;;
3433;SDS011;1730;41.932;25.548;2023-05-02T08:38:41;2.03;;;1.67;;
3433;SDS011;1730;41.932;25.548;2023-05-02T08:41:10;3.33;;;2.63;;
3433;SDS011;1730;41.932;25.548;2023-05-02T08:43:40;2.27;;;2.00;;
3433;SDS011;1730;41.932;25.548;2023-05-02T08:46:05;1.93;;;1.73;;
3433;SDS011;1730;41.932;25.548;2023-05-02T08:48:35;2.53;;;1.80;;
3433;SDS011;1730;41.932;25.548;2023-05-02T08:51:02;5.47;;;1.77;;
3433;SDS011;1730;41.932;25.548;2023-05-02T08:53:33;3.20;;;1.93;;
3433;SDS011;1730;41.932;25.548;2023-05-02T08:55:59;2.50;;;2.30;;
3433;SDS011;1730;41.932;25.548;2023-05-02T08:58:25;2.33;;;1.97;;
3433;SDS011;1730;41.932;25.548;2023-05-02T09:00:51;2.00;;;1.67;;
3433;SDS011;1730;41.932;25.548;2023-05-02T09:08:29;2.17;;;1.97;;
3433;SDS011;1730;41.932;25.548;2023-05-02T09:10:54;6.80;;;1.77;;
3433;SDS011;1730;41.932;25.548;2023-05-02T09:21:11;3.40;;;1.80;;
3433;SDS011;1730;41.932;25.548;2023-05-02T09:23:39;4.37;;;1.83;;
3433;SDS011;1730;41.932;25.548;2023-05-02T09:28:45;1.70;;;1.60;;
3433;SDS011;1730;41.932;25.548;2023-05-02T09:31:20;1.70;;;1.60;;
3433;SDS011;1730;41.932;25.548;2023-05-02T09:36:39;1.67;;;1.57;;
3433;SDS011;1730;41.932;25.548;2023-05-02T09:39:16;5.93;;;1.70;;
3433;SDS011;1730;41.932;25.548;2023-05-02T09:41:46;3.20;;;2.00;;
3433;SDS011;1730;41.932;25.548;2023-05-02T09:44:13;2.03;;;1.93;;
3433;SDS011;1730;41.932;25.548;2023-05-02T09:46:43;1.80;;;1.70;;
3433;SDS011;1730;41.932;25.548;2023-05-02T09:49:09;2.30;;;1.67;;
3433;SDS011;1730;41.932;25.548;2023-05-02T09:51:35;2.53;;;2.17;;
3433;SDS011;1730;41.932;25.548;2023-05-02T09:54:01;3.40;;;2.20;;
3433;SDS011;1730;41.932;25.548;2023-05-02T09:56:27;3.10;;;1.70;;
3433;SDS011;1730;41.932;25.548;2023-05-02T10:01:39;4.13;;;1.90;;
3433;SDS011;1730;41.932;25.548;2023-05-02T10:04:08;2.73;;;2.00;;
3433;SDS011;1730;41.932;25.548;2023-05-02T10:06:44;1.50;;;1.40;;
3433;SDS011;1730;41.932;25.548;2023-05-02T10:09:10;2.07;;;1.87;;
3433;SDS011;1730;41.932;25.548;2023-05-02T10:11:43;2.50;;;1.90;;
3433;SDS011;1730;41.932;25.548;2023-05-02T10:14:10;1.53;;;1.43;;
3433;SDS011;1730;41.932;25.548;2023-05-02T10:16:50;6.13;;;1.90;;
3433;SDS011;1730;41.932;25.548;2023-05-02T10:19:23;1.70;;;1.60;;
3433;SDS011;1730;41.932;25.548;2023-05-02T10:21:53;2.70;;;1.40;;
3433;SDS011;1730;41.932;25.548;2023-05-02T10:24:22;5.00;;;1.80;;
3433;SDS011;1730;41.932;25.548;2023-05-02T10:26:48;2.67;;;1.53;;
3433;SDS011;1730;41.932;25.548;2023-05-02T10:29:15;3.17;;;1.93;;
3433;SDS011;1730;41.932;25.548;2023-05-02T10:31:40;2.60;;;1.83;;
3433;SDS011;1730;41.932;25.548;2023-05-02T10:34:09;4.83;;;1.77;;
3433;SDS011;1730;41.932;25.548;2023-05-02T10:36:36;1.87;;;1.40;;
3433;SDS011;1730;41.932;25.548;2023-05-02T10:39:02;1.70;;;1.50;;
3433;SDS011;1730;41.932;25.548;2023-05-02T10:41:28;2.43;;;2.00;;
3433;SDS011;1730;41.932;25.548;2023-05-02T10:43:56;1.50;;;1.40;;
3433;SDS011;1730;41.932;25.548;2023-05-02T10:46:40;2.67;;;1.37;;
3433;SDS011;1730;41.932;25.548;2023-05-02T10:49:07;3.10;;;1.40;;
3433;SDS011;1730;41.932;25.548;2023-05-02T10:51:35;2.73;;;1.50;;
3433;SDS011;1730;41.932;25.548;2023-05-02T10:59:37;1.90;;;1.67;;
3433;SDS011;1730;41.932;25.548;2023-05-02T11:02:04;6.43;;;1.87;;
3433;SDS011;1730;41.932;25.548;2023-05-02T11:05:01;2.43;;;1.40;;
3433;SDS011;1730;41.932;25.548;2023-05-02T11:07:33;1.77;;;1.50;;
3433;SDS011;1730;41.932;25.548;2023-05-02T11:12:50;1.50;;;1.40;;
3433;SDS011;1730;41.932;25.548;2023-05-02T11:18:03;4.23;;;1.70;;
3433;SDS011;1730;41.932;25.548;2023-05-02T11:20:32;1.60;;;1.50;;
3433;SDS011;1730;41.932;25.548;2023-05-02T11:31:05;3.30;;;1.43;;
3433;SDS011;1730;41.932;25.548;2023-05-02T11:34:03;2.50;;;1.63;;
3433;SDS011;1730;41.932;25.548;2023-05-02T11:38:56;1.60;;;1.43;;
3433;SDS011;1730;41.932;25.548;2023-05-02T11:41:22;1.50;;;1.30;;
3433;SDS011;1730;41.932;25.548;2023-05-02T11:43:47;1.93;;;1.40;;
3433;SDS011;1730;41.932;25.548;2023-05-02T11:46:26;2.43;;;1.60;;
3433;SDS011;1730;41.932;25.548;2023-05-02T11:48:52;2.63;;;1.90;;
3433;SDS011;1730;41.932;25.548;2023-05-02T11:51:21;3.20;;;1.80;;
3433;SDS011;1730;41.932;25.548;2023-05-02T11:53:47;2.00;;;1.60;;
3433;SDS011;1730;41.932;25.548;2023-05-02T11:56:13;1.43;;;1.33;;
3433;SDS011;1730;41.932;25.548;2023-05-02T11:58:39;2.13;;;1.93;;
3433;SDS011;1730;41.932;25.548;2023-05-02T12:01:12;6.00;;;1.83;;
3433;SDS011;1730;41.932;25.548;2023-05-02T12:03:38;2.30;;;2.10;;
3433;SDS011;1730;41.932;25.548;2023-05-02T12:06:12;2.33;;;1.60;;
3433;SDS011;1730;41.932;25.548;2023-05-02T12:08:39;2.43;;;1.70;;
3433;SDS011;1730;41.932;25.548;2023-05-02T12:11:06;3.27;;;1.93;;
3433;SDS011;1730;41.932;25.548;2023-05-02T12:13:33;3.77;;;2.10;;
3433;SDS011;1730;41.932;25.548;2023-05-02T12:15:59;3.57;;;2.33;;
3433;SDS011;1730;41.932;25.548;2023-05-02T12:18:28;2.27;;;2.07;;
3433;SDS011;1730;41.932;25.548;2023-05-02T12:20:56;1.80;;;1.67;;
3433;SDS011;1730;41.932;25.548;2023-05-02T12:23:23;1.73;;;1.63;;
3433;SDS011;1730;41.932;25.548;2023-05-02T12:25:50;2.40;;;1.63;;
3433;SDS011;1730;41.932;25.548;2023-05-02T12:28:16;3.37;;;1.57;;
3433;SDS011;1730;41.932;25.548;2023-05-02T12:30:45;3.80;;;1.70;;
3433;SDS011;1730;41.932;25.548;2023-05-02T12:33:14;1.90;;;1.70;;
3433;SDS011;1730;41.932;25.548;2023-05-02T12:35:41;2.00;;;1.90;;
3433;SDS011;1730;41.932;25.548;2023-05-02T12:38:25;2.10;;;1.70;;
3433;SDS011;1730;41.932;25.548;2023-05-02T12:40:52;2.97;;;2.17;;
3433;SDS011;1730;41.932;25.548;2023-05-02T12:43:19;5.33;;;2.20;;
3433;SDS011;1730;41.932;25.548;2023-05-02T12:45:46;3.63;;;2.17;;
3433;SDS011;1730;41.932;25.548;2023-05-02T12:48:16;1.90;;;1.80;;
3433;SDS011;1730;41.932;25.548;2023-05-02T12:50:46;2.53;;;1.90;;
3433;SDS011;1730;41.932;25.548;2023-05-02T12:53:12;5.13;;;1.83;;
3433;SDS011;1730;41.932;25.548;2023-05-02T12:55:38;2.27;;;1.73;;
3433;SDS011;1730;41.932;25.548;2023-05-02T12:58:06;1.87;;;1.77;;
3433;SDS011;1730;41.932;25.548;2023-05-02T13:00:35;3.40;;;1.70;;
3433;SDS011;1730;41.932;25.548;2023-05-02T13:03:02;3.03;;;1.77;;
3433;SDS011;1730;41.932;25.548;2023-05-02T13:05:28;1.77;;;1.63;;
3433;SDS011;1730;41.932;25.548;2023-05-02T13:07:53;2.43;;;2.23;;
3433;SDS011;1730;41.932;25.548;2023-05-02T13:10:23;4.50;;;2.10;;
3433;SDS011;1730;41.932;25.548;2023-05-02T13:12:50;3.77;;;1.97;;
3433;SDS011;1730;41.932;25.548;2023-05-02T13:15:16;5.47;;;2.00;;
3433;SDS011;1730;41.932;25.548;2023-05-02T13:17:43;3.00;;;2.20;;
3433;SDS011;1730;41.932;25.548;2023-05-02T13:20:10;1.90;;;1.70;;
3433;SDS011;1730;41.932;25.548;2023-05-02T13:22:36;3.07;;;1.90;;
3433;SDS011;1730;41.932;25.548;2023-05-02T13:25:04;2.20;;;2.00;;
3433;SDS011;1730;41.932;25.548;2023-05-02T13:27:31;2.30;;;2.10;;
3433;SDS011;1730;41.932;25.548;2023-05-02T13:29:58;2.20;;;1.70;;
3433;SDS011;1730;41.932;25.548;2023-05-02T13:32:27;2.00;;;1.60;;
3433;SDS011;1730;41.932;25.548;2023-05-02T13:34:54;2.70;;;1.80;;
3433;SDS011;1730;41.932;25.548;2023-05-02T13:37:20;5.13;;;1.70;;
3433;SDS011;1730;41.932;25.548;2023-05-02T13:39:46;2.00;;;1.80;;
3433;SDS011;1730;41.932;25.548;2023-05-02T13:42:13;2.53;;;1.60;;
3433;SDS011;1730;41.932;25.548;2023-05-02T13:44:38;8.07;;;2.10;;
3433;SDS011;1730;41.932;25.548;2023-05-02T13:47:05;2.57;;;1.87;;
3433;SDS011;1730;41.932;25.548;2023-05-02T13:49:32;2.20;;;2.00;;
3433;SDS011;1730;41.932;25.548;2023-05-02T13:51:58;3.07;;;1.87;;
3433;SDS011;1730;41.932;25.548;2023-05-02T13:54:23;2.10;;;1.53;;
3433;SDS011;1730;41.932;25.548;2023-05-02T13:56:52;4.10;;;1.80;;
3433;SDS011;1730;41.932;25.548;2023-05-02T13:59:22;4.43;;;1.90;;
3433;SDS011;1730;41.932;25.548;2023-05-02T14:01:50;2.53;;;1.57;;
3433;SDS011;1730;41.932;25.548;2023-05-02T14:04:21;2.57;;;1.80;;
3433;SDS011;1730;41.932;25.548;2023-05-02T14:06:47;1.60;;;1.50;;
3433;SDS011;1730;41.932;25.548;2023-05-02T14:09:12;2.70;;;1.80;;
3433;SDS011;1730;41.932;25.548;2023-05-02T14:11:39;2.07;;;1.77;;
3433;SDS011;1730;41.932;25.548;2023-05-02T14:14:06;2.23;;;2.00;;
3433;SDS011;1730;41.932;25.548;2023-05-02T14:16:34;5.87;;;1.87;;
3433;SDS011;1730;41.932;25.548;2023-05-02T14:19:00;4.30;;;2.03;;
3433;SDS011;1730;41.932;25.548;2023-05-02T14:21:25;3.90;;;1.80;;
3433;SDS011;1730;41.932;25.548;2023-05-02T14:23:51;3.70;;;1.70;;
3433;SDS011;1730;41.932;25.548;2023-05-02T14:26:18;3.63;;;2.00;;
3433;SDS011;1730;41.932;25.548;2023-05-02T14:28:44;2.30;;;2.20;;
3433;SDS011;1730;41.932;25.548;2023-05-02T14:31:10;6.47;;;2.03;;
3433;SDS011;1730;41.932;25.548;2023-05-02T14:33:36;2.47;;;2.27;;
3433;SDS011;1730;41.932;25.548;2023-05-02T14:36:02;2.87;;;2.00;;
3433;SDS011;1730;41.932;25.548;2023-05-02T14:38:28;2.93;;;1.80;;
3433;SDS011;1730;41.932;25.548;2023-05-02T14:40:54;6.93;;;2.53;;
3433;SDS011;1730;41.932;25.548;2023-05-02T14:43:20;3.40;;;2.50;;
3433;SDS011;1730;41.932;25.548;2023-05-02T14:45:47;1.70;;;1.60;;
3433;SDS011;1730;41.932;25.548;2023-05-02T14:48:12;3.60;;;1.93;;
3433;SDS011;1730;41.932;25.548;2023-05-02T14:50:40;2.90;;;1.87;;
3433;SDS011;1730;41.932;25.548;2023-05-02T14:53:05;4.83;;;2.00;;
3433;SDS011;1730;41.932;25.548;2023-05-02T14:55:34;2.00;;;1.80;;
3433;SDS011;1730;41.932;25.548;2023-05-02T14:58:07;2.00;;;1.90;;
3433;SDS011;1730;41.932;25.548;2023-05-02T15:00:34;2.03;;;1.80;;
3433;SDS011;1730;41.932;25.548;2023-05-02T15:03:02;3.63;;;1.93;;
3433;SDS011;1730;41.932;25.548;2023-05-02T15:05:28;1.90;;;1.70;;
3433;SDS011;1730;41.932;25.548;2023-05-02T15:07:54;5.83;;;2.10;;
3433;SDS011;1730;41.932;25.548;2023-05-02T15:10:19;2.17;;;1.80;;
3433;SDS011;1730;41.932;25.548;2023-05-02T15:12:45;2.90;;;2.20;;
3433;SDS011;1730;41.932;25.548;2023-05-02T15:15:14;3.43;;;2.43;;
3433;SDS011;1730;41.932;25.548;2023-05-02T15:17:45;1.60;;;1.50;;
3433;SDS011;1730;41.932;25.548;2023-05-02T15:20:10;2.40;;;2.20;;
3433;SDS011;1730;41.932;25.548;2023-05-02T15:22:36;3.00;;;2.10;;
3433;SDS011;1730;41.932;25.548;2023-05-02T15:25:02;1.93;;;1.73;;
3433;SDS011;1730;41.932;25.548;2023-05-02T15:27:28;3.40;;;2.37;;
3433;SDS011;1730;41.932;25.548;2023-05-02T15:29:54;3.07;;;1.67;;
3433;SDS011;1730;41.932;25.548;2023-05-02T15:32:19;4.50;;;2.37;;
3433;SDS011;1730;41.932;25.548;2023-05-02T15:34:46;2.80;;;2.40;;
3433;SDS011;1730;41.932;25.548;2023-05-02T15:37:12;4.03;;;2.93;;
3433;SDS011;1730;41.932;25.548;2023-05-02T15:39:37;5.63;;;4.13;;
3433;SDS011;1730;41.932;25.548;2023-05-02T15:42:03;5.30;;;2.13;;
3433;SDS011;1730;41.932;25.548;2023-05-02T15:44:29;2.83;;;2.30;;
3433;SDS011;1730;41.932;25.548;2023-05-02T15:46:54;2.47;;;1.83;;
3433;SDS011;1730;41.932;25.548;2023-05-02T15:49:20;3.17;;;2.10;;
3433;SDS011;1730;41.932;25.548;2023-05-02T15:51:48;3.13;;;2.07;;
3433;SDS011;1730;41.932;25.548;2023-05-02T15:54:15;5.33;;;2.80;;
3433;SDS011;1730;41.932;25.548;2023-05-02T15:56:43;2.47;;;2.27;;
3433;SDS011;1730;41.932;25.548;2023-05-02T15:59:08;2.60;;;2.40;;
3433;SDS011;1730;41.932;25.548;2023-05-02T16:01:34;4.70;;;2.57;;
3433;SDS011;1730;41.932;25.548;2023-05-02T16:04:00;6.13;;;2.47;;
3433;SDS011;1730;41.932;25.548;2023-05-02T16:06:26;2.70;;;2.50;;
3433;SDS011;1730;41.932;25.548;2023-05-02T16:08:51;3.03;;;1.93;;